createdAt,value
2022-11-29T00:00:59.019Z,21.20
2022-11-29T00:03:27.151Z,22.25
2022-11-29T00:05:55.576Z,25.42
2022-11-29T00:08:24.375Z,20.40
2022-11-29T00:10:51.285Z,22.48
2022-11-29T00:13:18.254Z,28.30
2022-11-29T00:15:45.163Z,25.30
2022-11-29T00:18:13.967Z,31.80
2022-11-29T00:20:40.895Z,25.30
2022-11-29T00:23:07.950Z,22.40
2022-11-29T00:25:35.023Z,24.13
2022-11-29T00:28:02.036Z,29.77
2022-11-29T00:30:29.064Z,23.40
2022-11-29T00:32:55.987Z,25.85
2022-11-29T00:35:23.038Z,26.60
2022-11-29T00:37:49.955Z,25.55
2022-11-29T00:40:16.921Z,25.30
2022-11-29T00:42:44.005Z,23.98
2022-11-29T00:45:11.636Z,24.40
2022-11-29T00:47:38.760Z,24.15
2022-11-29T00:50:07.017Z,24.88
2022-11-29T00:52:34.001Z,26.27
2022-11-29T00:55:00.994Z,22.30
2022-11-29T00:57:27.936Z,28.35
2022-11-29T00:59:54.762Z,24.67
2022-11-29T01:02:21.862Z,27.92
2022-11-29T01:04:48.884Z,21.08
2022-11-29T01:07:15.812Z,25.63
2022-11-29T01:09:42.779Z,26.83
2022-11-29T01:12:09.886Z,25.42
2022-11-29T01:14:36.801Z,21.83
2022-11-29T01:17:03.830Z,23.08
2022-11-29T01:19:31.009Z,26.45
2022-11-29T01:21:57.856Z,25.75
2022-11-29T01:24:24.926Z,24.98
2022-11-29T01:26:51.786Z,27.33
2022-11-29T01:29:18.659Z,24.73
2022-11-29T01:31:45.656Z,24.73
2022-11-29T01:34:12.531Z,26.48
2022-11-29T01:36:39.448Z,22.23
2022-11-29T01:39:07.077Z,22.65
2022-11-29T01:41:36.826Z,24.52
2022-11-29T01:44:13.846Z,23.73
2022-11-29T01:46:43.149Z,25.27
2022-11-29T01:49:21.183Z,24.27
2022-11-29T01:51:54.554Z,24.98
2022-11-29T01:54:22.805Z,26.52
2022-11-29T01:56:51.973Z,24.35
2022-11-29T01:59:23.205Z,22.67
2022-11-29T02:01:50.106Z,29.85
2022-11-29T02:04:18.739Z,22.58
2022-11-29T02:06:46.260Z,26.48
2022-11-29T02:09:23.653Z,23.80
2022-11-29T02:12:00.079Z,23.58
2022-11-29T02:14:45.433Z,21.27
2022-11-29T02:17:21.354Z,25.13
2022-11-29T02:20:25.971Z,25.17
2022-11-29T02:23:04.854Z,22.13
2022-11-29T02:25:52.952Z,21.52
2022-11-29T02:28:57.869Z,20.45
2022-11-29T02:31:33.854Z,24.15
2022-11-29T02:34:06.931Z,22.27
2022-11-29T02:37:11.750Z,24.10
2022-11-29T02:40:07.563Z,19.35
2022-11-29T02:43:17.272Z,21.10
2022-11-29T02:46:19.142Z,18.77
2022-11-29T02:49:11.011Z,19.60
2022-11-29T02:51:55.906Z,20.00
2022-11-29T02:54:44.786Z,18.35
2022-11-29T02:57:24.919Z,20.83
2022-11-29T03:00:12.176Z,21.05
2022-11-29T03:02:59.546Z,21.23
2022-11-29T03:06:08.241Z,18.90
2022-11-29T03:08:54.881Z,15.40
2022-11-29T03:11:38.907Z,17.13
2022-11-29T03:14:17.831Z,18.58
2022-11-29T03:17:05.618Z,19.63
2022-11-29T03:19:37.392Z,22.33
2022-11-29T03:22:25.959Z,16.23
2022-11-29T03:25:01.234Z,19.20
2022-11-29T03:27:50.527Z,17.83
2022-11-29T03:30:19.550Z,17.17
2022-11-29T03:33:05.289Z,16.63
2022-11-29T03:36:01.666Z,17.38
2022-11-29T03:38:44.006Z,16.73
2022-11-29T03:41:13.955Z,14.73
2022-11-29T03:43:53.492Z,13.82
2022-11-29T03:46:57.299Z,14.68
2022-11-29T03:49:50.712Z,16.52
2022-11-29T03:52:27.207Z,12.27
2022-11-29T03:55:02.037Z,13.13
2022-11-29T03:57:45.047Z,15.75
2022-11-29T04:00:13.136Z,14.15
2022-11-29T04:03:03.289Z,16.00
2022-11-29T04:05:58.134Z,13.95
2022-11-29T04:08:46.050Z,12.32
2022-11-29T04:11:23.532Z,28.48
2022-11-29T04:14:24.661Z,13.13
2022-11-29T04:17:18.142Z,13.48
2022-11-29T04:20:05.497Z,14.75
2022-11-29T04:22:41.425Z,15.13
2022-11-29T04:25:34.574Z,17.45
2022-11-29T04:28:34.860Z,15.52
2022-11-29T04:31:13.049Z,16.25
2022-11-29T04:34:04.891Z,16.63
2022-11-29T04:37:05.935Z,13.57
2022-11-29T04:40:04.115Z,14.85
2022-11-29T04:42:43.482Z,14.20
2022-11-29T04:45:22.236Z,14.23
2022-11-29T04:47:58.788Z,14.85
2022-11-29T04:51:02.633Z,15.32
2022-11-29T04:53:51.649Z,14.45
2022-11-29T04:56:40.865Z,16.52
2022-11-29T04:59:25.876Z,18.00
2022-11-29T05:02:26.298Z,20.50
2022-11-29T05:05:12.078Z,18.02
2022-11-29T05:08:00.645Z,18.08
2022-11-29T05:11:10.921Z,19.40
2022-11-29T05:14:13.524Z,20.08
2022-11-29T05:16:54.234Z,18.15
2022-11-29T05:19:25.458Z,18.23
2022-11-29T05:22:20.119Z,17.98
2022-11-29T05:25:06.250Z,21.27
2022-11-29T05:27:47.404Z,19.77
2022-11-29T05:30:22.150Z,18.17
2022-11-29T05:33:23.409Z,14.85
2022-11-29T05:35:55.026Z,14.18
2022-11-29T05:38:50.712Z,13.45
2022-11-29T05:41:39.034Z,13.82
2022-11-29T05:44:53.403Z,15.50
2022-11-29T05:47:37.279Z,15.30
2022-11-29T05:50:12.145Z,12.32
2022-11-29T05:52:42.523Z,11.30
2022-11-29T05:55:22.074Z,9.95
2022-11-29T05:57:59.138Z,10.60
2022-11-29T06:00:46.675Z,9.50
2022-11-29T06:04:13.314Z,9.63
2022-11-29T06:06:59.507Z,10.88
2022-11-29T06:09:35.227Z,8.23
2022-11-29T06:12:20.833Z,10.20
2022-11-29T06:15:23.834Z,10.30
2022-11-29T06:18:26.215Z,11.00
2022-11-29T06:21:02.473Z,13.30
2022-11-29T06:23:51.543Z,12.00
2022-11-29T06:26:34.522Z,12.85
2022-11-29T06:29:27.858Z,14.40
2022-11-29T06:32:42.297Z,14.35
2022-11-29T06:35:43.657Z,15.05
2022-11-29T06:38:31.764Z,13.52
2022-11-29T06:41:15.958Z,16.52
2022-11-29T06:43:48.040Z,16.17
2022-11-29T06:47:14.799Z,14.18
2022-11-29T06:50:52.802Z,18.73
2022-11-29T06:57:54.515Z,16.58
2022-11-29T07:04:05.133Z,13.38
2022-11-29T07:06:38.432Z,15.80
2022-11-29T07:09:30.993Z,14.05
2022-11-29T07:11:59.774Z,12.65
2022-11-29T07:14:47.145Z,15.82
2022-11-29T07:18:10.979Z,13.10
2022-11-29T07:21:01.552Z,10.38
2022-11-29T07:23:50.045Z,10.13
2022-11-29T07:26:38.586Z,13.52
2022-11-29T07:29:46.446Z,10.85
2022-11-29T07:32:50.071Z,11.10
2022-11-29T07:35:49.059Z,16.10
2022-11-29T07:39:10.693Z,11.77
2022-11-29T07:43:02.215Z,10.70
2022-11-29T07:46:03.497Z,10.23
2022-11-29T07:49:10.164Z,14.10
2022-11-29T07:52:06.314Z,12.43
2022-11-29T07:58:06.710Z,9.02
2022-11-29T08:03:17.335Z,10.43
2022-11-29T08:05:52.317Z,9.23
2022-11-29T08:08:25.588Z,9.38
2022-11-29T08:10:54.434Z,7.88
2022-11-29T08:13:26.187Z,9.05
2022-11-29T08:15:55.468Z,11.05
2022-11-29T08:18:26.793Z,9.73
2022-11-29T08:21:55.284Z,10.43
2022-11-29T08:24:32.743Z,9.02
2022-11-29T08:27:13.682Z,12.13
2022-11-29T08:29:46.227Z,8.63
2022-11-29T08:44:06.946Z,10.25
2022-11-29T08:47:23.294Z,9.48
2022-11-29T09:04:39.853Z,7.20
2022-11-29T09:07:46.435Z,6.57
2022-11-29T09:10:48.138Z,7.85
2022-11-29T09:13:22.580Z,6.15
2022-11-29T09:19:06.992Z,7.20
2022-11-29T09:21:44.742Z,8.52
2022-11-29T09:24:12.425Z,7.45
2022-11-29T09:26:43.185Z,6.28
2022-11-29T09:29:42.825Z,6.65
2022-11-29T09:33:14.527Z,6.03
2022-11-29T09:58:46.641Z,5.72
2022-11-29T10:05:10.238Z,5.82
2022-11-29T10:08:04.809Z,5.32
2022-11-29T10:32:08.673Z,6.03
2022-11-29T10:34:46.889Z,5.38
2022-11-29T10:37:33.457Z,5.53
2022-11-29T10:40:24.767Z,7.07
2022-11-29T10:43:15.105Z,6.97
2022-11-29T10:57:01.085Z,6.07
2022-11-29T11:32:34.603Z,5.45
2022-11-29T11:35:04.911Z,6.72
2022-11-29T11:38:03.220Z,6.35
2022-11-29T11:40:59.533Z,6.18
2022-11-29T11:43:33.318Z,6.97
2022-11-29T11:46:00.517Z,6.10
2022-11-29T11:51:53.185Z,5.80
2022-11-29T11:57:28.341Z,6.68
2022-11-29T12:00:10.151Z,6.50
2022-11-29T12:03:04.980Z,6.22
2022-11-29T12:05:55.734Z,5.53
2022-11-29T12:27:02.849Z,5.10
2022-11-29T12:29:38.320Z,5.80
2022-11-29T12:39:46.702Z,4.63
2022-11-29T12:42:54.590Z,8.07
2022-11-29T12:49:00.608Z,6.47
2022-11-29T12:51:56.503Z,6.53
2022-11-29T12:54:43.612Z,7.65
2022-11-29T12:57:43.745Z,7.32
2022-11-29T13:00:14.917Z,6.32
2022-11-29T13:03:05.022Z,4.82
2022-11-29T13:05:38.136Z,5.95
2022-11-29T13:08:34.099Z,6.00
2022-11-29T13:11:27.728Z,5.80
2022-11-29T13:14:50.745Z,6.35
2022-11-29T13:17:45.134Z,8.05
2022-11-29T13:20:42.110Z,7.25
2022-11-29T13:25:51.466Z,5.65
2022-11-29T13:28:34.478Z,6.13
2022-11-29T13:31:24.430Z,6.38
2022-11-29T13:34:02.509Z,5.40
2022-11-29T13:36:54.861Z,5.70
2022-11-29T13:40:01.603Z,7.82
2022-11-29T13:42:44.617Z,5.37
2022-11-29T13:45:21.933Z,5.68
2022-11-29T13:47:58.961Z,5.57
2022-11-29T13:50:53.533Z,6.90
2022-11-29T13:53:48.891Z,5.93
2022-11-29T13:56:49.718Z,6.05
2022-11-29T13:59:19.024Z,5.35
2022-11-29T14:01:51.729Z,6.30
2022-11-29T14:04:43.819Z,6.25
2022-11-29T14:07:19.988Z,7.63
2022-11-29T14:10:03.369Z,6.68
2022-11-29T14:12:49.780Z,6.70
2022-11-29T14:15:33.415Z,5.63
2022-11-29T14:19:00.957Z,5.90
2022-11-29T14:21:57.014Z,6.50
2022-11-29T14:24:37.332Z,6.07
2022-11-29T14:27:12.434Z,5.45
2022-11-29T14:30:00.195Z,5.00
2022-11-29T14:32:46.226Z,6.18
2022-11-29T14:35:17.476Z,5.35
2022-11-29T14:37:56.330Z,5.60
2022-11-29T14:40:31.213Z,7.32
2022-11-29T14:42:59.096Z,7.63
2022-11-29T14:45:31.481Z,8.85
2022-11-29T14:47:59.204Z,7.70
2022-11-29T14:50:31.238Z,7.47
2022-11-29T14:52:59.043Z,7.05
2022-11-29T14:55:33.458Z,8.25
2022-11-29T15:01:09.950Z,8.50
2022-11-29T15:03:53.263Z,9.80
2022-11-29T15:06:29.227Z,9.60
2022-11-29T15:09:16.558Z,7.85
2022-11-29T15:12:24.039Z,7.43
2022-11-29T15:15:23.986Z,11.52
2022-11-29T15:18:15.980Z,10.20
2022-11-29T15:21:15.844Z,9.57
2022-11-29T15:23:44.194Z,9.25
2022-11-29T15:26:21.676Z,9.15
2022-11-29T15:28:48.641Z,10.27
2022-11-29T15:31:27.340Z,11.65
2022-11-29T15:33:56.355Z,11.52
2022-11-29T15:36:24.824Z,11.15
2022-11-29T15:38:54.541Z,13.30
2022-11-29T15:41:34.762Z,7.15
2022-11-29T15:44:07.380Z,5.95
2022-11-29T15:46:39.603Z,6.35
2022-11-29T15:49:27.379Z,6.65
2022-11-29T15:51:59.897Z,6.15
2022-11-29T15:54:43.986Z,6.97
2022-11-29T15:57:11.318Z,4.93
2022-11-29T15:59:44.621Z,5.72
2022-11-29T16:02:34.878Z,7.97
2022-11-29T16:05:05.914Z,6.80
2022-11-29T16:07:34.743Z,7.93
2022-11-29T16:10:22.741Z,7.35
2022-11-29T16:13:00.660Z,5.13
2022-11-29T16:15:44.164Z,6.22
2022-11-29T16:18:20.253Z,5.40
2022-11-29T16:21:00.806Z,5.82
2022-11-29T16:23:55.003Z,5.75
2022-11-29T16:26:33.790Z,17.80
2022-11-29T16:29:01.443Z,16.58
2022-11-29T16:31:34.297Z,12.45
2022-11-29T16:34:33.984Z,6.15
2022-11-29T16:37:02.702Z,8.45
2022-11-29T16:39:31.052Z,6.43
2022-11-29T16:45:32.905Z,8.70
2022-11-29T16:48:03.716Z,6.70
2022-11-29T16:50:32.906Z,6.63
2022-11-29T16:53:34.181Z,6.03
2022-11-29T16:56:03.313Z,5.53
2022-11-29T16:58:31.694Z,9.60
2022-11-29T17:01:00.423Z,22.67
2022-11-29T17:03:28.234Z,8.98
2022-11-29T17:05:59.974Z,7.75
2022-11-29T17:08:28.553Z,6.03
2022-11-29T17:10:55.853Z,5.10
2022-11-29T17:13:23.415Z,5.63
2022-11-29T17:15:53.097Z,5.82
2022-11-29T17:18:21.939Z,5.78
2022-11-29T17:20:49.439Z,7.03
2022-11-29T17:23:18.873Z,9.18
2022-11-29T17:25:46.363Z,7.63
2022-11-29T17:28:14.855Z,6.85
2022-11-29T17:30:42.599Z,8.20
2022-11-29T17:33:12.757Z,7.25
2022-11-29T17:35:40.494Z,6.20
2022-11-29T17:38:07.887Z,6.78
2022-11-29T17:40:34.764Z,7.68
2022-11-29T17:43:02.625Z,9.35
2022-11-29T17:45:29.720Z,9.00
2022-11-29T17:47:59.771Z,9.90
2022-11-29T17:50:26.983Z,8.00
2022-11-29T17:53:01.070Z,8.25
2022-11-29T17:55:34.273Z,7.55
2022-11-29T17:58:09.509Z,8.02
2022-11-29T18:08:51.834Z,5.85
2022-11-29T18:11:23.506Z,6.10
2022-11-29T18:13:53.871Z,7.90
2022-11-29T18:16:30.402Z,6.25
2022-11-29T18:19:02.914Z,7.37
2022-11-29T18:21:31.860Z,6.65
2022-11-29T18:24:04.544Z,5.97
2022-11-29T18:26:33.510Z,7.15
2022-11-29T18:31:44.015Z,6.43
2022-11-29T18:37:04.211Z,7.47
2022-11-29T18:39:35.136Z,7.57
2022-11-29T18:42:03.722Z,8.07
2022-11-29T18:44:33.361Z,9.57
2022-11-29T18:47:02.302Z,8.27
2022-11-29T18:49:30.554Z,7.93
2022-11-29T18:51:58.282Z,6.72
2022-11-29T18:54:33.014Z,7.22
2022-11-29T18:57:00.770Z,7.05
2022-11-29T18:59:29.076Z,7.22
2022-11-29T19:01:57.867Z,7.75
2022-11-29T19:04:29.430Z,6.18
2022-11-29T19:07:01.260Z,7.88
2022-11-29T19:09:34.230Z,8.45
2022-11-29T19:12:06.901Z,7.07
2022-11-29T19:14:35.501Z,8.43
2022-11-29T19:17:05.559Z,8.40
2022-11-29T19:19:34.491Z,8.02
2022-11-29T19:22:03.759Z,8.32
2022-11-29T19:24:40.823Z,7.55
2022-11-29T19:27:09.784Z,9.20
2022-11-29T19:29:39.895Z,10.10
2022-11-29T19:32:14.206Z,7.78
2022-11-29T19:34:43.059Z,8.77
2022-11-29T19:37:11.938Z,7.80
2022-11-29T19:39:40.206Z,7.95
2022-11-29T19:42:13.382Z,8.75
2022-11-29T19:45:15.229Z,8.55
2022-11-29T19:47:33.802Z,8.00
2022-11-29T19:50:03.037Z,8.07
2022-11-29T19:52:34.814Z,8.93
2022-11-29T19:55:04.096Z,13.10
2022-11-29T19:57:35.889Z,13.80
2022-11-29T20:00:09.545Z,9.82
2022-11-29T20:02:37.051Z,9.50
2022-11-29T20:05:06.096Z,8.02
2022-11-29T20:07:34.565Z,8.05
2022-11-29T20:10:02.666Z,8.40
2022-11-29T20:12:34.753Z,8.40
2022-11-29T20:15:02.556Z,8.13
2022-11-29T20:17:32.413Z,8.93
2022-11-29T20:20:01.283Z,6.93
2022-11-29T20:22:28.357Z,9.15
2022-11-29T20:24:58.159Z,9.38
2022-11-29T20:27:26.473Z,6.93
2022-11-29T20:29:56.332Z,8.60
2022-11-29T20:32:24.649Z,7.70
2022-11-29T20:34:54.179Z,7.95
2022-11-29T20:37:43.237Z,7.93
2022-11-29T20:43:16.294Z,8.57
2022-11-29T20:45:45.107Z,9.88
2022-11-29T20:48:25.745Z,9.75
2022-11-29T20:51:02.596Z,8.13
2022-11-29T20:53:46.416Z,8.93
2022-11-29T20:56:14.133Z,7.68
2022-11-29T20:58:43.716Z,8.45
2022-11-29T21:01:13.686Z,6.97
2022-11-29T21:03:41.413Z,7.93
2022-11-29T21:08:44.211Z,6.65
2022-11-29T21:11:11.908Z,6.68
2022-11-29T21:13:43.800Z,7.30
2022-11-29T21:16:18.106Z,6.55
2022-11-29T21:18:45.846Z,8.63
2022-11-29T21:21:20.589Z,6.63
2022-11-29T21:23:57.234Z,6.78
2022-11-29T21:26:41.499Z,6.60
2022-11-29T21:29:15.511Z,6.68
2022-11-29T21:31:43.914Z,7.57
2022-11-29T21:34:11.910Z,8.10
2022-11-29T21:36:40.247Z,8.50
2022-11-29T21:39:11.401Z,7.45
2022-11-29T21:41:39.602Z,6.20
2022-11-29T21:44:08.156Z,7.13
2022-11-29T21:46:36.669Z,9.70
2022-11-29T21:49:05.570Z,8.27
2022-11-29T21:51:33.706Z,7.40
2022-11-29T21:54:02.454Z,9.02
2022-11-29T21:56:29.646Z,11.05
2022-11-29T21:58:57.971Z,7.45
2022-11-29T22:01:27.854Z,9.10
2022-11-29T22:03:56.320Z,7.50
2022-11-29T22:06:25.253Z,7.63
2022-11-29T22:08:53.065Z,9.38
2022-11-29T22:11:32.273Z,8.07
2022-11-29T22:14:17.319Z,7.25
2022-11-29T22:16:54.842Z,7.60
2022-11-29T22:19:25.762Z,6.60
2022-11-29T22:21:56.658Z,8.15
2022-11-29T22:24:26.674Z,6.90
2022-11-29T22:26:55.570Z,7.80
2022-11-29T22:29:24.947Z,6.20
2022-11-29T22:31:56.349Z,6.32
2022-11-29T22:34:28.039Z,7.60
2022-11-29T22:36:56.035Z,7.40
2022-11-29T22:39:24.672Z,6.88
2022-11-29T22:41:54.779Z,7.45
2022-11-29T22:44:23.951Z,7.75
2022-11-29T22:46:51.689Z,7.85
2022-11-29T22:49:19.653Z,7.43
2022-11-29T22:51:47.545Z,6.90
2022-11-29T22:54:18.683Z,6.55
2022-11-29T22:56:49.287Z,5.72
2022-11-29T22:59:17.104Z,6.35
2022-11-29T23:01:44.390Z,7.45
2022-11-29T23:04:14.940Z,6.65
2022-11-29T23:06:47.213Z,8.73
2022-11-29T23:09:22.745Z,7.18
2022-11-29T23:14:35.974Z,7.45
2022-11-29T23:17:03.104Z,6.25
2022-11-29T23:19:30.169Z,7.97
2022-11-29T23:21:57.635Z,6.72
2022-11-29T23:24:24.635Z,7.03
2022-11-29T23:26:51.542Z,6.95
2022-11-29T23:29:19.923Z,7.13
2022-11-29T23:31:47.470Z,6.25
2022-11-29T23:34:14.844Z,6.75
2022-11-29T23:36:41.885Z,7.25
2022-11-29T23:39:08.825Z,8.15
2022-11-29T23:41:37.028Z,8.43
2022-11-29T23:44:06.992Z,8.00
2022-11-29T23:46:35.650Z,7.47
2022-11-29T23:49:02.796Z,7.85
2022-11-29T23:51:30.101Z,7.85
2022-11-29T23:53:57.317Z,7.18
2022-11-29T23:56:24.324Z,6.72
2022-11-29T23:58:51.366Z,8.10
